createdAt,value
2023-03-11T00:00:51.633Z,-0.59
2023-03-11T00:06:20.644Z,-0.60
2023-03-11T00:11:45.648Z,-0.57
2023-03-11T00:17:10.656Z,-0.50
2023-03-11T00:22:38.672Z,0.24
2023-03-11T00:28:02.667Z,0.39
2023-03-11T00:33:27.617Z,1.63
2023-03-11T00:38:54.676Z,1.69
2023-03-11T00:44:20.063Z,0.21
2023-03-11T00:49:43.779Z,0.19
2023-03-11T00:55:11.657Z,0.27
2023-03-11T01:00:37.692Z,0.07
2023-03-11T01:06:02.636Z,0.28
2023-03-11T01:11:29.640Z,0.55
2023-03-11T01:16:55.698Z,0.69
2023-03-11T01:22:20.661Z,0.60
2023-03-11T01:27:48.711Z,0.68
2023-03-11T01:33:13.702Z,0.66
2023-03-11T01:38:38.665Z,0.67
2023-03-11T01:44:10.698Z,0.89
2023-03-11T01:49:35.703Z,0.99
2023-03-11T01:55:00.673Z,1.14
2023-03-11T02:00:28.688Z,1.17
2023-03-11T02:05:53.700Z,1.05
2023-03-11T02:11:24.666Z,1.14
2023-03-11T02:16:53.682Z,1.01
2023-03-11T02:22:21.699Z,1.03
2023-03-11T02:27:54.710Z,0.87
2023-03-11T02:33:27.716Z,0.97
2023-03-11T02:38:52.697Z,1.07
2023-03-11T02:44:22.729Z,1.01
2023-03-11T02:49:48.694Z,0.97
2023-03-11T02:55:13.701Z,1.07
2023-03-11T03:00:41.781Z,1.02
2023-03-11T03:06:06.721Z,1.01
2023-03-11T03:11:31.729Z,0.96
2023-03-11T03:16:59.915Z,0.99
2023-03-11T03:22:25.694Z,1.09
2023-03-11T03:27:50.703Z,1.06
2023-03-11T03:33:25.734Z,1.13
2023-03-11T03:38:50.721Z,1.35
2023-03-11T03:44:18.742Z,1.35
2023-03-11T03:49:46.762Z,1.22
2023-03-11T03:55:11.728Z,1.06
2023-03-11T04:00:36.704Z,0.98
2023-03-11T04:06:03.733Z,0.95
2023-03-11T04:11:29.737Z,0.93
2023-03-11T04:16:55.764Z,1.08
2023-03-11T04:22:23.747Z,1.13
2023-03-11T04:27:52.748Z,1.04
2023-03-11T04:33:18.720Z,1.01
2023-03-11T04:38:45.739Z,1.07
2023-03-11T04:44:11.761Z,0.88
2023-03-11T04:49:35.747Z,1.00
2023-03-11T04:55:05.761Z,1.09
2023-03-11T05:00:31.783Z,1.07
2023-03-11T05:06:03.719Z,1.05
2023-03-11T05:11:30.761Z,1.11
2023-03-11T05:16:55.729Z,1.07
2023-03-11T05:22:22.766Z,1.07
2023-03-11T05:27:50.740Z,0.98
2023-03-11T05:33:15.735Z,0.99
2023-03-11T05:38:41.790Z,1.05
2023-03-11T05:44:09.759Z,1.08
2023-03-11T05:49:34.760Z,1.06
2023-03-11T05:55:00.770Z,1.15
2023-03-11T06:00:29.804Z,1.50
2023-03-11T06:06:01.768Z,1.27
2023-03-11T06:11:27.773Z,1.17
2023-03-11T06:16:54.748Z,1.23
2023-03-11T06:22:19.776Z,1.10
2023-03-11T06:27:43.784Z,1.22
2023-03-11T06:33:11.807Z,1.25
2023-03-11T06:38:37.483Z,1.20
2023-03-11T06:44:02.781Z,1.17
2023-03-11T06:49:30.807Z,1.29
2023-03-11T06:54:56.761Z,1.47
2023-03-11T07:00:26.801Z,1.31
2023-03-11T07:05:59.771Z,1.20
2023-03-11T07:11:25.879Z,1.16
2023-03-11T07:16:57.831Z,1.61
2023-03-11T07:22:29.763Z,1.77
2023-03-11T07:27:55.811Z,1.73
2023-03-11T07:33:19.811Z,1.52
2023-03-11T07:38:48.833Z,1.82
2023-03-11T07:44:14.795Z,2.14
2023-03-11T07:49:39.800Z,1.99
2023-03-11T07:55:07.809Z,1.91
2023-03-11T08:00:32.809Z,2.17
2023-03-11T08:05:56.793Z,2.09
2023-03-11T08:11:26.600Z,1.90
2023-03-11T08:16:50.827Z,2.18
2023-03-11T08:22:15.849Z,2.37
2023-03-11T08:27:45.799Z,2.57
2023-03-11T08:33:11.812Z,2.56
2023-03-11T08:38:38.212Z,2.61
2023-03-11T08:44:05.852Z,3.11
2023-03-11T08:49:29.868Z,2.70
2023-03-11T08:54:54.792Z,3.16
2023-03-11T09:00:29.846Z,3.16
2023-03-11T09:05:54.936Z,3.03
2023-03-11T09:11:19.905Z,3.15
2023-03-11T09:16:47.853Z,2.73
2023-03-11T09:22:11.868Z,2.84
2023-03-11T09:27:36.849Z,3.04
2023-03-11T09:33:03.829Z,3.01
2023-03-11T09:38:30.845Z,3.30
2023-03-11T09:44:10.992Z,3.13
2023-03-11T09:49:45.894Z,2.88
2023-03-11T09:55:11.915Z,3.23
2023-03-11T10:00:36.898Z,3.42
2023-03-11T10:06:03.866Z,2.93
2023-03-11T10:11:41.892Z,2.88
2023-03-11T10:17:15.869Z,2.76
2023-03-11T10:22:53.880Z,3.13
2023-03-11T10:28:24.900Z,3.19
2023-03-11T10:33:56.894Z,3.16
2023-03-11T10:39:26.897Z,3.03
2023-03-11T10:44:52.946Z,2.68
2023-03-11T10:50:18.900Z,2.65
2023-03-11T10:55:55.871Z,2.63
2023-03-11T11:01:31.951Z,2.89
2023-03-11T11:06:56.887Z,2.63
2023-03-11T11:12:29.886Z,2.93
2023-03-11T11:17:56.858Z,2.83
2023-03-11T11:23:21.887Z,2.65
2023-03-11T11:28:49.889Z,2.44
2023-03-11T11:34:13.925Z,2.58
2023-03-11T11:39:46.909Z,2.81
2023-03-11T11:45:19.988Z,2.73
2023-03-11T11:50:48.960Z,2.77
2023-03-11T11:56:12.903Z,2.96
2023-03-11T12:01:56.919Z,2.96
2023-03-11T12:07:34.915Z,3.08
2023-03-11T12:13:20.911Z,3.28
2023-03-11T12:18:53.903Z,3.50
2023-03-11T12:24:31.949Z,3.41
2023-03-11T12:30:01.911Z,3.52
2023-03-11T12:35:38.938Z,3.54
2023-03-11T12:41:13.893Z,3.33
2023-03-11T12:47:12.912Z,3.52
2023-03-11T12:53:01.968Z,3.80
2023-03-11T12:59:03.927Z,3.79
2023-03-11T13:04:45.981Z,4.27
2023-03-11T13:10:29.947Z,4.21
2023-03-11T13:15:54.937Z,4.26
2023-03-11T13:21:20.954Z,4.39
2023-03-11T13:26:54.929Z,4.05
2023-03-11T13:32:52.045Z,4.95
2023-03-11T13:38:48.090Z,4.81
2023-03-11T13:44:25.959Z,4.38
2023-03-11T13:49:56.021Z,4.39
2023-03-11T13:55:22.983Z,4.43
2023-03-11T14:00:57.977Z,4.49
2023-03-11T14:06:25.956Z,4.42
2023-03-11T14:11:54.991Z,5.08
2023-03-11T14:17:29.037Z,4.56
2023-03-11T14:22:55.941Z,4.75
2023-03-11T14:28:20.951Z,5.14
2023-03-11T14:33:48.954Z,5.39
2023-03-11T14:39:12.951Z,5.43
2023-03-11T14:44:40.966Z,5.35
2023-03-11T14:50:10.062Z,5.14
2023-03-11T14:55:40.083Z,5.39
2023-03-11T15:01:15.982Z,5.34
2023-03-11T15:06:47.979Z,5.56
2023-03-11T15:12:13.973Z,5.44
2023-03-11T15:17:44.393Z,5.20
2023-03-11T15:23:13.981Z,5.47
2023-03-11T15:28:40.980Z,5.36
2023-03-11T15:34:05.988Z,5.24
2023-03-11T15:39:38.017Z,5.10
2023-03-11T15:45:26.987Z,5.30
2023-03-11T15:51:03.987Z,5.48
2023-03-11T15:56:39.995Z,5.24
2023-03-11T16:02:12.003Z,5.03
2023-03-11T16:07:40.075Z,5.42
2023-03-11T16:13:07.012Z,5.44
2023-03-11T16:18:32.056Z,5.46
2023-03-11T16:23:55.969Z,5.21
2023-03-11T16:29:35.012Z,5.28
2023-03-11T16:34:59.014Z,5.09
2023-03-11T16:40:27.026Z,4.99
2023-03-11T16:45:54.049Z,5.07
2023-03-11T16:51:20.035Z,5.12
2023-03-11T16:56:45.981Z,4.81
2023-03-11T17:02:14.087Z,4.84
2023-03-11T17:07:39.594Z,4.69
2023-03-11T17:13:05.048Z,4.43
2023-03-11T17:18:32.080Z,4.60
2023-03-11T17:23:58.030Z,4.64
2023-03-11T17:29:22.048Z,4.61
2023-03-11T17:34:50.057Z,4.48
2023-03-11T17:40:14.066Z,4.29
2023-03-11T17:45:39.063Z,4.51
2023-03-11T17:51:06.050Z,4.41
2023-03-11T17:56:32.052Z,4.13
2023-03-11T18:01:57.038Z,4.16
2023-03-11T18:07:25.071Z,4.46
2023-03-11T18:12:49.040Z,4.68
2023-03-11T18:18:17.353Z,4.78
2023-03-11T18:23:45.020Z,4.32
2023-03-11T18:29:12.399Z,4.25
2023-03-11T18:34:36.067Z,4.19
2023-03-11T18:40:04.050Z,4.03
2023-03-11T18:45:35.075Z,4.14
2023-03-11T18:51:01.037Z,3.97
2023-03-11T18:56:30.046Z,3.88
2023-03-11T19:01:55.058Z,3.72
2023-03-11T19:07:19.080Z,3.69
2023-03-11T19:12:47.091Z,3.65
2023-03-11T19:18:11.066Z,3.63
2023-03-11T19:23:36.074Z,3.53
2023-03-11T19:29:03.232Z,3.34
2023-03-11T19:34:29.072Z,3.29
2023-03-11T19:39:54.098Z,3.28
2023-03-11T19:45:28.081Z,3.37
2023-03-11T19:50:53.091Z,3.27
2023-03-11T19:56:18.104Z,3.20
2023-03-11T20:01:46.114Z,2.96
2023-03-11T20:07:10.137Z,3.01
2023-03-11T20:12:35.176Z,2.86
2023-03-11T20:18:02.086Z,2.82
2023-03-11T20:23:27.237Z,2.86
2023-03-11T20:28:51.094Z,2.89
2023-03-11T20:34:19.077Z,2.93
2023-03-11T20:39:43.169Z,2.95
2023-03-11T20:45:08.118Z,2.91
2023-03-11T20:50:36.084Z,2.88
2023-03-11T20:56:01.133Z,2.78
2023-03-11T21:01:30.197Z,2.75
2023-03-11T21:06:59.193Z,2.76
2023-03-11T21:12:25.173Z,2.79
2023-03-11T21:17:50.159Z,2.73
2023-03-11T21:23:17.225Z,2.74
2023-03-11T21:28:53.108Z,2.58
2023-03-11T21:34:20.195Z,2.66
2023-03-11T21:39:47.125Z,2.78
2023-03-11T21:45:12.137Z,2.98
2023-03-11T21:50:36.184Z,2.96
2023-03-11T21:56:04.223Z,2.88
2023-03-11T22:01:28.231Z,3.01
2023-03-11T22:06:54.878Z,2.69
2023-03-11T22:12:23.191Z,2.70
2023-03-11T22:17:48.319Z,2.69
2023-03-11T22:23:12.148Z,2.73
2023-03-11T22:28:46.139Z,2.56
2023-03-11T22:34:11.112Z,2.45
2023-03-11T22:39:36.125Z,2.42
2023-03-11T22:45:04.137Z,2.34
2023-03-11T22:50:28.131Z,2.42
2023-03-11T22:55:54.176Z,2.47
2023-03-11T23:01:23.115Z,2.38
2023-03-11T23:06:48.145Z,2.36
2023-03-11T23:12:13.148Z,2.31
2023-03-11T23:17:41.217Z,2.21
2023-03-11T23:23:05.145Z,2.37
2023-03-11T23:28:36.217Z,2.43
2023-03-11T23:34:04.144Z,2.33
2023-03-11T23:39:28.149Z,2.44
2023-03-11T23:44:53.171Z,2.53
2023-03-11T23:50:22.137Z,2.36
2023-03-11T23:55:48.155Z,2.29
